Time;durP1;ratioP1;P1;durP2;ratioP2;P2;SDS_P1;SDS_P2;PMS_P1;PMS_P2;Temp;Humidity;BMP_temperature;BMP_pressure;BME280_temperature;BME280_humidity;BME280_pressure;Samples;Min_cycle;Max_cycle;Signal;HPM_P1;HPM_P2
2022/08/12 00:44:43;;;;;;;1.88;1.58;;;;;;;19.65;69.41;94673.22;5012396;28;20227;-73
2022/08/12 00:47:12;;;;;;;2.55;2.00;;;;;;;19.59;69.67;94675.53;5012172;28;20201;-73
2022/08/12 00:49:40;;;;;;;2.33;1.98;;;;;;;19.60;69.58;94674.34;5012199;28;20318;-73
2022/08/12 00:52:09;;;;;;;2.50;1.85;;;;;;;19.57;69.58;94666.88;5012257;28;20260;-73
2022/08/12 00:54:40;;;;;;;4.80;2.25;;;;;;;19.51;70.05;94662.94;5011505;28;20704;-73
2022/08/12 00:57:10;;;;;;;2.75;1.83;;;;;;;19.53;70.18;94663.34;5011597;28;20260;-72
2022/08/12 00:59:42;;;;;;;2.50;1.83;;;;;;;19.50;70.16;94669.59;5011569;28;20571;-72
2022/08/12 01:02:14;;;;;;;2.70;1.70;;;;;;;19.50;69.89;94664.88;5011702;28;20276;-72
2022/08/12 01:12:59;;;;;;;1.80;1.60;;;;;;;19.67;69.11;94679.91;5000292;28;20235;-73
2022/08/12 01:15:28;;;;;;;1.90;1.60;;;;;;;19.67;69.27;94677.16;5011430;28;20244;-74
2022/08/12 01:17:56;;;;;;;2.53;1.90;;;;;;;19.78;68.59;94683.50;5011633;28;20674;-73
2022/08/12 01:20:35;;;;;;;2.58;1.90;;;;;;;19.75;68.99;94680.72;5011137;28;20676;-72
2022/08/12 01:23:19;;;;;;;2.00;1.80;;;;;;;19.74;68.98;94682.69;5011176;28;20319;-73
2022/08/12 01:25:51;;;;;;;2.15;1.77;;;;;;;19.86;68.58;94690.59;4999342;28;20243;-73
2022/08/12 01:28:20;;;;;;;2.47;1.90;;;;;;;19.93;68.65;94683.56;5011284;28;20201;-72
2022/08/12 01:30:50;;;;;;;3.15;1.85;;;;;;;19.86;69.15;94690.59;5011135;28;20807;-73
2022/08/12 01:33:21;;;;;;;2.80;2.05;;;;;;;19.77;69.73;94692.13;5010849;28;20676;-74
2022/08/12 01:35:54;;;;;;;1.80;1.42;;;;;;;19.71;69.72;94682.66;5011386;28;20197;-72
2022/08/12 01:38:22;;;;;;;1.48;1.38;;;;;;;19.75;69.71;94678.75;5011302;28;20201;-73
2022/08/12 01:40:52;;;;;;;2.40;1.67;;;;;;;19.92;69.01;94682.78;5011418;28;20267;-72
2022/08/12 01:43:23;;;;;;;2.72;1.90;;;;;;;19.90;69.33;94681.59;5011253;28;20201;-72
2022/08/12 01:46:02;;;;;;;2.92;1.77;;;;;;;19.95;69.17;94683.97;5011566;28;20576;-73
2022/08/12 01:48:44;;;;;;;2.63;1.98;;;;;;;19.94;69.24;94679.66;4991494;28;20255;-73
2022/08/12 01:51:25;;;;;;;3.45;3.13;;;;;;;19.91;69.54;94680.41;5008089;28;20632;-72
2022/08/12 01:54:03;;;;;;;4.03;2.55;;;;;;;19.75;70.05;94678.75;5010856;28;20197;-73
2022/08/12 01:56:38;;;;;;;3.08;1.98;;;;;;;19.68;70.25;94673.22;4998354;28;20199;-73
2022/08/12 02:01:53;;;;;;;4.65;2.45;;;;;;;19.71;70.02;94677.94;5010935;28;20268;-75
2022/08/12 02:13:20;;;;;;;3.50;2.90;;;;;;;19.59;70.28;94674.75;5010405;28;20486;-74
2022/08/12 02:15:56;;;;;;;3.25;2.45;;;;;;;19.54;70.43;94666.88;5010157;28;20233;-73
2022/08/12 02:18:31;;;;;;;3.05;2.28;;;;;;;19.57;70.27;94671.59;5010929;28;20296;-73
2022/08/12 02:21:03;;;;;;;3.00;2.60;;;;;;;19.67;69.94;94671.66;4991229;28;20256;-73
2022/08/12 02:23:33;;;;;;;3.72;2.60;;;;;;;19.76;69.81;94680.34;5005872;28;20602;-73
2022/08/12 02:26:04;;;;;;;4.07;2.72;;;;;;;19.82;69.87;94678.00;5010240;28;20208;-74
2022/08/12 02:28:33;;;;;;;3.88;2.55;;;;;;;19.83;69.75;94669.38;5010737;28;20197;-72
2022/08/12 02:31:04;;;;;;;5.55;2.88;;;;;;;19.81;68.97;94668.19;5010403;28;20545;-72
2022/08/12 02:33:32;;;;;;;5.47;3.30;;;;;;;19.90;69.08;94673.34;5010190;28;20275;-72
2022/08/12 02:36:01;;;;;;;3.40;2.25;;;;;;;19.95;69.07;94675.72;5009999;28;20656;-74
2022/08/12 02:38:30;;;;;;;4.07;2.80;;;;;;;20.04;68.54;94670.66;5010204;28;20201;-74
2022/08/12 02:41:01;;;;;;;3.33;2.75;;;;;;;19.99;68.50;94677.31;5010773;28;20213;-73
2022/08/12 02:43:37;;;;;;;3.78;2.47;;;;;;;19.99;68.33;94665.50;5010673;28;20275;-74
2022/08/12 02:46:07;;;;;;;3.75;2.60;;;;;;;20.03;68.73;94671.81;5010105;28;20212;-73
2022/08/12 02:48:40;;;;;;;3.28;2.42;;;;;;;20.00;69.05;94661.59;5010507;28;20280;-72
2022/08/12 02:51:10;;;;;;;3.78;3.05;;;;;;;19.93;69.48;94667.06;5010105;28;20208;-72
2022/08/12 02:53:38;;;;;;;5.45;3.67;;;;;;;19.78;69.32;94669.75;5010544;28;20209;-74
2022/08/12 02:56:06;;;;;;;6.18;3.53;;;;;;;19.75;69.30;94673.25;5010049;28;20205;-73
2022/08/12 02:58:35;;;;;;;3.28;2.60;;;;;;;19.83;68.88;94674.88;5010195;28;20279;-73
2022/08/12 03:01:08;;;;;;;2.67;2.20;;;;;;;19.80;69.45;94670.16;5011220;28;20263;-74
2022/08/12 03:03:36;;;;;;;3.65;2.78;;;;;;;19.73;70.12;94670.09;5014257;28;20201;-74
2022/08/12 03:06:07;;;;;;;4.03;3.00;;;;;;;19.61;71.99;94673.19;5013483;28;20279;-74
2022/08/12 03:08:42;;;;;;;3.95;2.70;;;;;;;19.58;72.55;94679.44;5013785;28;20604;-74
2022/08/12 03:11:16;;;;;;;4.50;3.75;;;;;;;19.43;73.23;94683.25;5013294;28;20571;-74
2022/08/12 03:13:47;;;;;;;5.32;3.85;;;;;;;19.40;72.22;94675.78;5012215;28;20192;-74
2022/08/12 03:16:14;;;;;;;3.38;2.78;;;;;;;19.32;72.73;94687.88;4964943;28;20273;-74
2022/08/12 03:18:42;;;;;;;4.20;2.95;;;;;;;19.26;72.88;94679.22;4974871;28;20248;-74
2022/08/12 03:21:12;;;;;;;6.25;3.17;;;;;;;19.31;73.04;94680.81;4974092;28;20285;-74
2022/08/12 03:23:41;;;;;;;3.70;2.55;;;;;;;19.28;73.75;94676.06;4974410;28;20202;-74
2022/08/12 03:26:08;;;;;;;6.35;3.03;;;;;;;19.27;74.20;94680.00;4974566;28;20252;-74
2022/08/12 03:28:52;;;;;;;4.13;2.80;;;;;;;19.26;74.02;94683.94;4974324;28;20241;-74
2022/08/12 03:31:24;;;;;;;4.45;2.95;;;;;;;19.21;74.89;94687.00;4974251;28;20206;-74
2022/08/12 03:33:52;;;;;;;3.80;2.63;;;;;;;19.21;75.40;94695.25;4974442;28;20201;-74
2022/08/12 03:36:20;;;;;;;6.47;2.85;;;;;;;19.10;76.13;94698.72;4974526;28;20206;-74
2022/08/12 03:39:14;;;;;;;5.43;2.83;;;;;;;19.06;77.48;94697.88;4974502;28;20676;-74
2022/08/12 03:41:45;;;;;;;3.47;2.15;;;;;;;19.02;77.73;94694.31;4974163;28;20211;-74
2022/08/12 04:00:52;;;;;;;3.47;2.60;;;;;;;18.91;80.82;94707.16;4973994;28;20205;-74
2022/08/12 04:06:08;;;;;;;4.90;3.38;;;;;;;18.62;82.63;94708.06;4974198;28;20197;-75
2022/08/12 04:08:35;;;;;;;4.47;2.92;;;;;;;18.54;83.77;94709.13;4973676;28;20340;-76
2022/08/12 04:13:49;;;;;;;5.40;3.55;;;;;;;18.40;84.86;94710.56;4972409;28;20342;-76
2022/08/12 04:16:17;;;;;;;7.35;3.60;;;;;;;18.31;85.79;94707.28;5002739;28;20656;-76
2022/08/12 04:18:46;;;;;;;6.93;3.05;;;;;;;18.27;86.41;94706.50;5013100;28;20205;-77
2022/08/12 04:21:12;;;;;;;3.50;2.50;;;;;;;18.22;87.50;94709.56;5012703;28;20204;-76
2022/08/12 04:23:41;;;;;;;4.50;3.08;;;;;;;18.16;89.31;94702.84;5012727;28;20775;-75
2022/08/12 04:26:09;;;;;;;4.63;3.55;;;;;;;18.08;91.02;94710.16;5012848;28;20543;-75
2022/08/12 04:28:36;;;;;;;5.85;3.75;;;;;;;18.02;90.72;94710.88;5012905;28;20204;-75
2022/08/12 04:31:03;;;;;;;5.22;3.40;;;;;;;17.98;90.02;94710.03;4995220;28;20279;-75
2022/08/12 04:33:31;;;;;;;5.18;3.03;;;;;;;17.92;90.32;94708.78;5012610;28;20205;-75
2022/08/12 04:35:59;;;;;;;4.25;2.88;;;;;;;17.89;90.16;94710.34;5012455;28;20201;-75
2022/08/12 04:38:27;;;;;;;5.30;3.05;;;;;;;17.89;90.01;94706.81;5012306;28;20676;-75
2022/08/12 04:40:54;;;;;;;5.45;3.63;;;;;;;17.90;90.42;94702.91;5012573;28;20230;-75
2022/08/12 04:43:21;;;;;;;8.07;3.28;;;;;;;17.93;90.48;94696.66;5012797;28;20205;-76
2022/08/12 04:45:48;;;;;;;6.82;3.72;;;;;;;18.02;90.59;94702.66;5011918;28;20284;-76
2022/08/12 04:48:15;;;;;;;6.55;3.35;;;;;;;18.22;90.79;94709.56;5012194;28;20680;-76
2022/08/12 04:50:44;;;;;;;6.28;3.30;;;;;;;18.19;89.56;94704.81;5012265;28;20229;-76
2022/08/12 04:53:13;;;;;;;4.80;3.22;;;;;;;18.35;90.18;94701.84;5012260;28;20197;-76
2022/08/12 04:55:41;;;;;;;8.23;3.60;;;;;;;18.41;89.05;94695.69;5011541;28;20212;-77
2022/08/12 04:58:08;;;;;;;7.68;3.00;;;;;;;18.45;87.66;94701.97;5012068;28;20292;-77
2022/08/12 05:00:37;;;;;;;5.72;3.20;;;;;;;18.52;87.88;94695.00;5012253;28;20283;-77
2022/08/12 05:03:05;;;;;;;5.47;3.55;;;;;;;18.60;89.96;94702.16;4999168;28;20212;-77
2022/08/12 05:05:34;;;;;;;4.78;3.00;;;;;;;18.69;90.13;94695.22;5011591;28;20219;-76
2022/08/12 05:08:01;;;;;;;5.68;3.33;;;;;;;18.78;88.93;94692.13;5011562;28;20798;-76
2022/08/12 05:10:29;;;;;;;6.47;3.88;;;;;;;18.75;88.13;94693.69;5011079;28;20228;-76
2022/08/12 05:12:59;;;;;;;5.07;3.63;;;;;;;18.80;87.81;94695.31;5012392;28;20284;-76
2022/08/12 05:15:26;;;;;;;6.18;4.10;;;;;;;18.72;88.73;94696.41;5011644;28;20312;-77
2022/08/12 05:17:54;;;;;;;5.85;4.70;;;;;;;18.54;90.75;94703.63;5012060;28;20212;-77
2022/08/12 05:20:21;;;;;;;5.50;3.45;;;;;;;18.48;91.54;94706.72;5011764;28;20205;-76
2022/08/12 05:22:49;;;;;;;6.57;4.30;;;;;;;18.34;93.36;94701.06;5011596;28;20201;-76
2022/08/12 05:25:19;;;;;;;6.53;3.30;;;;;;;18.20;92.77;94711.88;5010809;28;20212;-77
2022/08/12 05:27:47;;;;;;;6.22;4.25;;;;;;;18.24;92.57;94712.72;5011927;28;20243;-77
2022/08/12 05:30:14;;;;;;;6.75;4.22;;;;;;;18.27;91.74;94714.72;5011540;28;20782;-78
2022/08/12 05:32:41;;;;;;;5.45;3.97;;;;;;;18.38;91.77;94718.38;5011672;28;20247;-78
2022/08/12 05:35:09;;;;;;;10.80;4.53;;;;;;;18.52;91.43;94716.94;5011288;28;20205;-77
2022/08/12 05:37:36;;;;;;;6.82;5.78;;;;;;;18.62;90.93;94716.28;5011815;28;20217;-77
2022/08/12 05:40:05;;;;;;;5.80;4.25;;;;;;;18.73;91.22;94717.19;5011749;28;20205;-78
2022/08/12 05:42:32;;;;;;;6.72;4.13;;;;;;;18.96;90.43;94715.06;5011055;28;20664;-78
2022/08/12 05:45:00;;;;;;;5.70;3.83;;;;;;;19.24;89.21;94719.22;5011733;28;20308;-78
2022/08/12 05:47:28;;;;;;;5.32;4.00;;;;;;;19.50;88.41;94727.28;5011546;28;20291;-78
2022/08/12 05:49:55;;;;;;;7.00;4.18;;;;;;;19.45;86.14;94722.13;5011196;28;20322;-77
2022/08/12 05:52:22;;;;;;;10.32;6.68;;;;;;;19.57;86.06;94712.81;5011435;28;20224;-78
2022/08/12 05:54:49;;;;;;;9.65;6.15;;;;;;;19.28;84.34;94720.00;5011094;28;20201;-78
2022/08/12 05:57:15;;;;;;;5.68;3.63;;;;;;;19.43;85.48;94716.22;5011202;28;20278;-77
2022/08/12 05:59:42;;;;;;;6.60;3.67;;;;;;;19.57;84.64;94716.34;5011194;28;20267;-77
2022/08/12 06:02:10;;;;;;;5.85;3.45;;;;;;;19.75;84.90;94717.25;5010822;28;20254;-77
2022/08/12 06:04:39;;;;;;;6.20;3.53;;;;;;;19.97;84.82;94706.34;5010825;28;20726;-77
2022/08/12 06:07:07;;;;;;;4.78;3.53;;;;;;;19.65;82.98;94711.69;5010517;28;20204;-77
2022/08/12 06:09:34;;;;;;;5.85;3.33;;;;;;;19.56;85.17;94709.25;5011260;28;20284;-77
2022/08/12 06:12:01;;;;;;;3.97;2.83;;;;;;;19.94;85.04;94712.66;5010284;28;20197;-77
2022/08/12 06:14:28;;;;;;;5.05;2.80;;;;;;;19.76;83.61;94718.84;5002406;28;20717;-78
2022/08/12 06:16:55;;;;;;;2.92;2.20;;;;;;;19.40;83.80;94717.78;5005484;28;20197;-78
2022/08/12 06:19:24;;;;;;;3.95;2.88;;;;;;;19.69;83.83;94717.97;5010510;28;20221;-78
2022/08/12 06:21:50;;;;;;;2.80;2.10;;;;;;;19.79;83.51;94715.31;5010275;28;20200;-78
2022/08/12 06:24:22;;;;;;;4.47;2.60;;;;;;;19.92;83.17;94715.78;5009843;28;20680;-78
2022/08/12 06:26:49;;;;;;;2.90;2.20;;;;;;;20.03;81.90;94713.06;5010522;28;20267;-77
2022/08/12 06:29:18;;;;;;;3.95;2.75;;;;;;;20.10;83.35;94705.63;5010637;28;20213;-77
2022/08/12 06:31:49;;;;;;;5.45;4.72;;;;;;;20.23;81.84;94714.34;5009809;28;20275;-76
2022/08/12 06:34:16;;;;;;;5.13;3.63;;;;;;;20.50;81.34;94710.13;5009970;28;20670;-77
2022/08/12 06:36:45;;;;;;;3.33;2.72;;;;;;;20.60;80.75;94710.56;5010024;28;20193;-77
2022/08/12 06:39:13;;;;;;;4.38;3.13;;;;;;;20.79;81.40;94718.47;5010192;28;20211;-76
2022/08/12 06:44:24;;;;;;;8.35;2.90;;;;;;;20.84;79.53;94707.06;5010033;28;20213;-76
2022/08/12 06:46:52;;;;;;;3.60;2.63;;;;;;;21.09;77.84;94710.66;5009738;28;20236;-76
2022/08/12 06:49:18;;;;;;;2.83;2.20;;;;;;;21.57;74.51;94704.78;5009693;28;20280;-76
2022/08/12 06:51:46;;;;;;;4.10;2.50;;;;;;;21.35;74.93;94705.94;5009948;28;20326;-76
2022/08/12 06:54:13;;;;;;;3.30;1.60;;;;;;;20.97;74.53;94690.97;5009246;28;20604;-78
2022/08/12 06:56:40;;;;;;;3.50;2.70;;;;;;;20.93;75.26;94701.97;5009181;28;20639;-76
2022/08/12 06:59:07;;;;;;;2.75;2.28;;;;;;;20.93;75.37;94707.47;5010105;28;20220;-74
2022/08/12 07:01:35;;;;;;;3.63;2.45;;;;;;;21.11;73.98;94697.28;5009848;28;20270;-74
2022/08/12 07:04:02;;;;;;;5.88;2.30;;;;;;;21.42;74.05;94705.97;5010523;28;20209;-73
2022/08/12 07:06:28;;;;;;;3.75;3.28;;;;;;;21.73;73.37;94699.59;5009709;28;20208;-75
2022/08/12 07:08:57;;;;;;;3.47;3.17;;;;;;;22.05;72.02;94687.72;5009544;28;20247;-75
2022/08/12 07:11:24;;;;;;;3.70;2.80;;;;;;;22.26;71.08;94690.44;5010217;28;20232;-75
2022/08/12 07:13:52;;;;;;;3.33;2.33;;;;;;;21.87;71.20;94694.06;5006664;28;20670;-74
2022/08/12 07:16:21;;;;;;;4.57;3.55;;;;;;;21.91;70.85;94694.84;5000181;28;20916;-74
2022/08/12 07:18:50;;;;;;;6.47;3.13;;;;;;;22.61;69.76;94698.53;5009723;28;20209;-74
2022/08/12 07:21:18;;;;;;;2.95;2.63;;;;;;;22.88;69.09;94695.25;5009601;28;20229;-74
2022/08/12 07:23:45;;;;;;;3.80;3.03;;;;;;;23.52;66.11;94692.78;5009491;28;20208;-75
2022/08/12 07:26:16;;;;;;;3.15;2.80;;;;;;;23.20;65.82;94693.06;5010023;28;20734;-75
2022/08/12 07:28:44;;;;;;;4.60;3.17;;;;;;;22.70;67.59;94695.31;5010336;28;20271;-75
2022/08/12 07:31:11;;;;;;;4.97;3.30;;;;;;;23.21;66.22;94691.06;5010272;28;20634;-74
2022/08/12 07:33:41;;;;;;;3.70;2.58;;;;;;;23.11;67.25;94692.72;5009788;28;20211;-75
2022/08/12 07:36:10;;;;;;;4.35;2.83;;;;;;;23.17;65.87;94695.84;5010388;28;20265;-75
2022/08/12 07:38:41;;;;;;;3.88;3.08;;;;;;;23.72;64.20;94690.25;4996524;28;20209;-74
2022/08/12 07:41:10;;;;;;;4.50;3.75;;;;;;;24.12;63.24;94693.38;5010172;28;20343;-74
2022/08/12 07:43:41;;;;;;;5.07;4.30;;;;;;;24.12;62.12;94688.63;5010031;28;20216;-74
2022/08/12 07:46:11;;;;;;;6.95;4.70;;;;;;;24.27;61.78;94683.75;5009591;28;20248;-74
2022/08/12 07:48:40;;;;;;;5.22;3.35;;;;;;;24.50;60.58;94674.75;5013145;28;20201;-74
2022/08/12 07:51:08;;;;;;;4.93;3.17;;;;;;;25.20;59.32;94667.44;5013429;28;20248;-74
2022/08/12 07:53:37;;;;;;;7.13;3.05;;;;;;;25.36;57.39;94670.34;5013849;28;20209;-74
2022/08/12 07:56:05;;;;;;;4.03;2.42;;;;;;;25.82;56.59;94666.78;5013265;28;20231;-73
2022/08/12 07:58:32;;;;;;;4.10;2.90;;;;;;;26.01;56.70;94665.22;5013028;28;20205;-74
2022/08/12 08:01:03;;;;;;;5.45;3.53;;;;;;;26.43;53.28;94660.06;5013243;28;20213;-74
2022/08/12 08:03:29;;;;;;;4.40;3.55;;;;;;;26.70;52.22;94663.44;5013144;28;20629;-75
2022/08/12 08:05:58;;;;;;;4.78;3.50;;;;;;;26.29;53.01;94663.13;5013606;28;20208;-77
2022/08/12 08:08:27;;;;;;;3.53;3.22;;;;;;;25.73;54.74;94666.53;5012735;28;20232;-74
2022/08/12 08:12:52;;;;;;;4.22;3.20;;;;;;;25.07;55.88;94669.22;5012523;28;20240;-75
2022/08/12 08:13:44;;;;;;;2.55;2.35;;;;;;;25.05;54.93;94671.63;5012425;28;20320;-75
2022/08/12 08:16:14;;;;;;;3.88;2.65;;;;;;;25.22;54.34;94664.22;5013223;28;20207;-73
2022/08/12 08:18:41;;;;;;;5.25;2.72;;;;;;;24.54;54.75;94665.19;5012890;28;20216;-74
2022/08/12 08:21:09;;;;;;;3.08;2.38;;;;;;;25.06;53.72;94656.56;5013069;28;20239;-73
2022/08/12 08:26:24;;;;;;;6.30;2.83;;;;;;;25.63;52.71;94655.66;5012752;28;20351;-73
2022/08/12 08:28:51;;;;;;;3.30;2.83;;;;;;;25.76;52.50;94653.81;5012919;28;20201;-73
2022/08/12 08:31:20;;;;;;;4.25;2.58;;;;;;;25.82;51.07;94657.69;5012855;28;20263;-73
2022/08/12 08:33:47;;;;;;;3.50;2.47;;;;;;;25.47;52.61;94656.28;4999433;28;20209;-73
2022/08/12 08:36:14;;;;;;;2.38;2.08;;;;;;;25.45;51.89;94651.16;5012637;28;20205;-74
2022/08/12 08:38:43;;;;;;;2.97;2.40;;;;;;;26.06;50.84;94639.75;4999514;28;20193;-73
2022/08/12 08:43:54;;;;;;;2.40;2.05;;;;;;;24.66;52.17;94656.31;5012660;28;20205;-73
2022/08/12 08:46:22;;;;;;;2.55;2.35;;;;;;;25.10;52.45;94657.28;5012410;28;20232;-73
2022/08/12 08:48:49;;;;;;;2.70;2.40;;;;;;;24.68;53.67;94648.38;5012267;28;20205;-73
2022/08/12 08:51:17;;;;;;;3.67;2.78;;;;;;;24.74;54.23;94652.25;5012563;28;20243;-74
2022/08/12 08:53:43;;;;;;;3.30;2.35;;;;;;;24.68;54.69;94648.38;5012737;28;20213;-73
2022/08/12 08:56:10;;;;;;;3.10;2.65;;;;;;;25.25;53.19;94642.00;5012117;28;20280;-75
2022/08/12 08:58:38;;;;;;;3.20;2.90;;;;;;;25.84;52.14;94635.81;5011518;28;20209;-72
2022/08/12 09:01:05;;;;;;;2.60;2.33;;;;;;;25.83;50.55;94631.50;5012452;28;20259;-75
2022/08/12 09:03:33;;;;;;;2.88;2.50;;;;;;;26.60;49.52;94631.13;5012069;28;20197;-74
2022/08/12 09:06:01;;;;;;;2.70;2.42;;;;;;;26.40;48.22;94636.69;5011835;28;20213;-74
2022/08/12 09:08:28;;;;;;;3.75;2.70;;;;;;;26.52;48.15;94635.25;5011884;28;20209;-77
2022/08/12 09:13:26;;;;;;;2.50;2.30;;;;;;;26.04;48.13;94636.63;5011958;28;20260;-75
2022/08/12 09:13:42;;;;;;;2.55;2.30;;;;;;;26.26;47.99;94622.28;5011588;28;20205;-74
2022/08/12 09:16:08;;;;;;;3.22;2.60;;;;;;;26.53;47.06;94628.47;5011787;28;20209;-74
2022/08/12 09:18:37;;;;;;;3.42;2.35;;;;;;;26.76;46.91;94622.81;5011260;28;20211;-74
2022/08/12 09:21:04;;;;;;;2.95;2.50;;;;;;;26.82;47.42;94618.28;5010966;28;20236;-73
2022/08/12 09:23:35;;;;;;;3.05;2.28;;;;;;;26.11;47.33;94616.25;5011059;28;20657;-77
2022/08/12 09:26:02;;;;;;;2.83;2.53;;;;;;;25.92;47.11;94623.38;5011388;28;20212;-74
2022/08/12 09:28:31;;;;;;;3.20;2.55;;;;;;;25.61;47.83;94635.81;5011913;28;20279;-74
2022/08/12 09:30:59;;;;;;;2.90;2.50;;;;;;;25.38;48.96;94634.66;5011425;28;20279;-74
2022/08/12 09:33:32;;;;;;;2.40;2.10;;;;;;;25.26;48.79;94631.69;5011241;28;20205;-74
2022/08/12 09:36:01;;;;;;;2.80;2.40;;;;;;;25.70;48.18;94636.06;5011496;28;20205;-74
2022/08/12 09:38:28;;;;;;;2.60;2.40;;;;;;;25.78;47.28;94629.97;5011844;28;20244;-74
2022/08/12 09:40:56;;;;;;;3.05;2.50;;;;;;;25.94;49.06;94612.63;5011463;28;20255;-73
2022/08/12 09:46:16;;;;;;;2.70;2.50;;;;;;;26.46;46.78;94617.53;5011433;28;20303;-74
2022/08/12 09:48:43;;;;;;;3.38;2.60;;;;;;;26.88;45.03;94633.25;5011634;28;20279;-74
2022/08/12 09:51:13;;;;;;;3.47;2.83;;;;;;;27.23;45.37;94619.75;5011028;28;20221;-74
2022/08/12 09:53:40;;;;;;;3.70;2.78;;;;;;;27.86;46.75;94616.56;5011146;28;20220;-74
2022/08/12 09:56:10;;;;;;;4.18;2.42;;;;;;;27.99;43.64;94602.69;5011239;28;20296;-75
2022/08/12 09:58:37;;;;;;;3.53;2.53;;;;;;;28.07;42.73;94604.81;5011162;28;20208;-74
2022/08/12 10:01:05;;;;;;;3.20;2.78;;;;;;;27.46;43.29;94610.44;5011073;28;20205;-74
2022/08/12 10:03:35;;;;;;;4.13;2.78;;;;;;;27.86;42.79;94605.44;5011220;28;20217;-74
2022/08/12 10:06:04;;;;;;;3.47;3.17;;;;;;;28.47;43.78;94601.69;5010935;28;20292;-74
2022/08/12 10:08:33;;;;;;;2.95;2.33;;;;;;;28.68;41.57;94589.91;5011141;28;20240;-74
2022/08/12 10:13:51;;;;;;;3.42;2.47;;;;;;;28.67;41.11;94591.16;5009972;28;20223;-75
2022/08/12 10:16:20;;;;;;;2.50;2.28;;;;;;;28.72;42.08;94590.56;5010732;28;20263;-73
2022/08/12 10:18:50;;;;;;;4.45;2.50;;;;;;;28.73;42.62;94586.56;5010468;28;20672;-73
2022/08/12 10:21:18;;;;;;;2.65;2.38;;;;;;;28.92;42.95;94591.16;5010590;28;20272;-74
2022/08/12 10:23:48;;;;;;;2.53;2.17;;;;;;;28.86;41.46;94581.78;5010335;28;20268;-74
2022/08/12 10:31:49;;;;;;;2.92;2.63;;;;;;;28.53;43.00;94558.13;5010250;28;20239;-73
2022/08/12 10:34:16;;;;;;;3.33;2.88;;;;;;;28.41;41.38;94572.84;5010749;28;20201;-73
2022/08/12 10:36:44;;;;;;;2.85;2.50;;;;;;;28.25;41.21;94577.25;5010430;28;20615;-73
2022/08/12 10:39:14;;;;;;;3.70;2.60;;;;;;;28.53;40.68;94566.50;5010192;28;20637;-74
2022/08/12 10:44:26;;;;;;;2.95;2.45;;;;;;;29.38;40.38;94563.78;5009704;28;20204;-74
2022/08/12 10:46:54;;;;;;;3.00;2.38;;;;;;;29.60;40.27;94567.41;5010615;28;20258;-74
2022/08/12 10:49:27;;;;;;;3.33;2.40;;;;;;;29.58;40.72;94564.28;5010093;28;20274;-74
2022/08/12 10:51:54;;;;;;;3.63;2.55;;;;;;;29.12;39.64;94571.38;5010138;28;20224;-73
2022/08/12 10:54:26;;;;;;;3.75;2.60;;;;;;;29.41;41.20;94571.25;5010155;28;20209;-74
2022/08/12 10:56:53;;;;;;;3.05;2.25;;;;;;;29.14;40.94;94566.13;5010283;28;20228;-74
2022/08/12 10:59:20;;;;;;;2.65;2.45;;;;;;;28.84;41.59;94567.50;5010208;28;20216;-74
2022/08/12 11:01:48;;;;;;;3.08;2.50;;;;;;;29.37;41.73;94565.00;5010473;28;20303;-74
2022/08/12 11:04:15;;;;;;;3.08;2.72;;;;;;;29.08;41.50;94558.81;5010176;28;20232;-74
2022/08/12 11:06:46;;;;;;;2.40;2.20;;;;;;;28.72;42.18;94551.53;5009334;28;20204;-74
2022/08/12 11:09:16;;;;;;;3.28;2.70;;;;;;;28.40;42.46;94549.75;5010197;28;20315;-73
2022/08/12 11:11:46;;;;;;;3.05;2.70;;;;;;;28.69;41.93;94549.66;5010610;28;20229;-73
2022/08/12 11:14:16;;;;;;;3.15;2.78;;;;;;;28.57;42.07;94553.19;5009976;28;20244;-73
2022/08/12 11:16:44;;;;;;;5.97;2.42;;;;;;;28.80;41.43;94552.91;4997129;28;20205;-73
2022/08/12 11:19:11;;;;;;;2.75;2.45;;;;;;;28.25;42.37;94554.97;4996990;28;20575;-73
2022/08/12 11:21:39;;;;;;;2.65;2.40;;;;;;;27.91;44.23;94558.31;5010275;28;20291;-73
2022/08/12 11:24:06;;;;;;;2.55;2.35;;;;;;;27.90;44.80;94555.97;5013748;28;20205;-73
2022/08/12 11:26:33;;;;;;;4.38;2.30;;;;;;;27.66;44.15;94554.66;5014236;28;20205;-74
2022/08/12 11:29:01;;;;;;;2.78;2.40;;;;;;;27.59;44.41;94553.66;5014119;28;20205;-73
2022/08/12 11:31:28;;;;;;;5.05;2.65;;;;;;;27.84;44.90;94549.38;5013323;28;20247;-74
2022/08/12 11:33:55;;;;;;;2.50;2.30;;;;;;;27.81;43.96;94541.91;5013249;28;20251;-73
2022/08/12 11:36:22;;;;;;;6.65;2.83;;;;;;;27.85;44.52;94537.03;5013667;28;20271;-73
2022/08/12 11:38:49;;;;;;;2.92;2.38;;;;;;;27.73;45.80;94538.56;5013985;28;20595;-73
2022/08/12 11:41:16;;;;;;;4.45;2.90;;;;;;;27.66;46.58;94540.75;5013426;28;20208;-73
2022/08/12 11:43:43;;;;;;;3.40;2.80;;;;;;;27.67;48.03;94547.88;5013456;28;20205;-73
2022/08/12 11:46:11;;;;;;;3.80;3.05;;;;;;;27.43;48.55;94553.66;5012684;28;20259;-73
2022/08/12 11:48:39;;;;;;;3.45;2.92;;;;;;;27.28;48.18;94548.88;5013265;28;20283;-75
2022/08/12 11:51:07;;;;;;;3.17;2.65;;;;;;;26.75;50.32;94551.75;5012806;28;20235;-74
2022/08/12 11:53:34;;;;;;;3.40;2.70;;;;;;;26.38;51.05;94547.44;5012988;28;20711;-73
2022/08/12 11:56:02;;;;;;;2.65;2.45;;;;;;;26.10;53.21;94545.28;5012904;28;20229;-73
2022/08/12 11:58:29;;;;;;;4.20;2.60;;;;;;;26.18;52.57;94543.91;5013305;28;20220;-73
2022/08/12 12:00:56;;;;;;;2.92;2.65;;;;;;;26.23;51.43;94548.19;5013028;28;20895;-72
2022/08/12 12:03:24;;;;;;;6.30;3.00;;;;;;;26.69;50.12;94536.81;5012700;28;20762;-72
2022/08/12 12:05:50;;;;;;;2.65;2.42;;;;;;;26.62;48.81;94537.00;5012724;28;20259;-72
2022/08/12 12:08:21;;;;;;;2.92;2.63;;;;;;;26.72;48.11;94538.72;5013349;28;20254;-73
2022/08/12 12:10:49;;;;;;;4.38;3.20;;;;;;;27.00;46.63;94540.06;5013297;28;20263;-73
2022/08/12 12:13:15;;;;;;;2.75;2.45;;;;;;;27.65;46.16;94533.59;5013251;28;20295;-73
2022/08/12 12:15:42;;;;;;;2.63;2.42;;;;;;;27.94;46.13;94528.81;5012360;28;20237;-73
2022/08/12 12:18:20;;;;;;;2.90;2.60;;;;;;;28.25;45.53;94521.53;5012403;28;20634;-73
2022/08/12 12:20:48;;;;;;;3.17;2.88;;;;;;;28.09;44.08;94524.38;5013180;28;20568;-73
2022/08/12 12:23:15;;;;;;;2.72;2.50;;;;;;;27.92;44.67;94525.66;5012816;28;20204;-73
2022/08/12 12:25:42;;;;;;;2.53;2.33;;;;;;;28.41;43.11;94517.09;4999991;28;20272;-73
2022/08/12 12:28:09;;;;;;;3.80;2.80;;;;;;;28.64;42.30;94514.75;5012649;28;20201;-73
2022/08/12 12:30:36;;;;;;;3.08;2.40;;;;;;;29.14;40.51;94509.56;5012859;28;20248;-73
2022/08/12 12:33:04;;;;;;;2.85;2.65;;;;;;;29.61;39.84;94517.91;5012396;28;20699;-75
2022/08/12 12:35:31;;;;;;;2.95;2.67;;;;;;;29.42;40.62;94516.97;5012470;28;20201;-74
2022/08/12 12:38:01;;;;;;;3.50;2.15;;;;;;;29.56;42.13;94515.69;5012669;28;20208;-74
2022/08/12 12:40:29;;;;;;;3.47;2.20;;;;;;;28.42;42.03;94518.66;5012744;28;20639;-74
2022/08/12 12:42:57;;;;;;;3.47;2.60;;;;;;;27.75;43.54;94510.25;5012557;28;20631;-74
2022/08/12 12:45:24;;;;;;;3.75;3.15;;;;;;;27.85;43.01;94511.97;5012745;28;20209;-74
2022/08/12 12:47:58;;;;;;;5.43;3.15;;;;;;;27.48;43.85;94505.00;5012358;28;20213;-73
2022/08/12 12:50:26;;;;;;;6.05;3.25;;;;;;;27.97;44.47;94494.50;5012772;28;20259;-74
2022/08/12 12:52:54;;;;;;;2.97;2.67;;;;;;;27.98;42.77;94495.28;5012165;28;20237;-75
2022/08/12 12:55:22;;;;;;;3.35;2.85;;;;;;;28.32;41.82;94489.09;5012240;28;20237;-74
2022/08/12 12:57:50;;;;;;;2.90;2.33;;;;;;;28.58;41.98;94482.28;5012087;28;20205;-74
2022/08/12 13:00:18;;;;;;;4.20;2.90;;;;;;;28.66;40.81;94483.63;5012404;28;20205;-74
2022/08/12 13:02:51;;;;;;;3.20;2.60;;;;;;;28.66;41.13;94483.63;5011940;28;20209;-76
2022/08/12 13:05:22;;;;;;;4.07;2.70;;;;;;;28.23;40.95;94484.97;5011878;28;20190;-78
2022/08/12 13:07:49;;;;;;;4.43;2.83;;;;;;;28.58;41.04;94482.28;5011781;28;20271;-74
2022/08/12 13:10:16;;;;;;;3.60;3.15;;;;;;;28.14;42.76;94492.41;5012145;28;20209;-74
2022/08/12 13:12:44;;;;;;;3.10;2.25;;;;;;;27.37;44.25;94491.38;4998823;28;20224;-79
2022/08/12 13:15:14;;;;;;;3.50;2.95;;;;;;;27.02;45.26;94486.78;5011617;28;20241;-75
2022/08/12 13:17:43;;;;;;;3.33;2.90;;;;;;;26.79;45.99;94487.72;5011067;28;20205;-76
2022/08/12 13:20:12;;;;;;;4.60;3.20;;;;;;;26.77;46.03;94482.63;5011084;28;20227;-74
2022/08/12 13:22:39;;;;;;;3.60;2.95;;;;;;;26.85;46.08;94477.66;5011428;28;20295;-75
2022/08/12 13:25:06;;;;;;;3.53;2.83;;;;;;;26.39;47.04;94478.78;5011636;28;20310;-74
2022/08/12 13:27:40;;;;;;;4.75;3.15;;;;;;;26.45;46.11;94488.16;5011213;28;20201;-75
2022/08/12 13:30:12;;;;;;;3.20;2.83;;;;;;;26.44;46.33;94478.25;5012068;28;20621;-74